createdAt,value
2022-11-27T00:02:18.749Z,10.67
2022-11-27T00:04:46.292Z,11.60
2022-11-27T00:07:13.814Z,11.93
2022-11-27T00:09:41.595Z,12.97
2022-11-27T00:12:09.372Z,11.83
2022-11-27T00:14:36.825Z,10.43
2022-11-27T00:17:04.310Z,11.40
2022-11-27T00:19:31.821Z,10.17
2022-11-27T00:21:59.250Z,10.30
2022-11-27T00:24:26.706Z,10.47
2022-11-27T00:26:54.234Z,9.73
2022-11-27T00:29:22.910Z,9.13
2022-11-27T00:31:50.364Z,9.33
2022-11-27T00:34:17.868Z,9.93
2022-11-27T00:36:48.144Z,11.47
2022-11-27T00:39:16.063Z,9.67
2022-11-27T00:41:43.481Z,10.53
2022-11-27T00:44:10.974Z,10.03
2022-11-27T00:46:38.525Z,10.40
2022-11-27T00:49:06.773Z,9.87
2022-11-27T00:51:34.660Z,10.37
2022-11-27T00:54:02.247Z,10.27
2022-11-27T00:56:32.065Z,11.47
2022-11-27T00:59:00.013Z,9.63
2022-11-27T01:01:29.111Z,10.93
2022-11-27T01:03:58.000Z,10.83
2022-11-27T01:06:26.439Z,10.93
2022-11-27T01:08:55.135Z,9.93
2022-11-27T01:11:25.883Z,10.93
2022-11-27T01:13:54.055Z,9.27
2022-11-27T01:16:23.189Z,9.70
2022-11-27T01:18:51.570Z,9.90
2022-11-27T01:21:20.422Z,10.60
2022-11-27T01:23:48.409Z,9.13
2022-11-27T01:26:16.007Z,10.00
2022-11-27T01:28:43.530Z,10.03
2022-11-27T01:31:13.832Z,9.87
2022-11-27T01:33:44.338Z,10.20
2022-11-27T01:36:12.831Z,11.57
2022-11-27T01:38:40.360Z,11.80
2022-11-27T01:41:25.993Z,10.17
2022-11-27T01:43:55.349Z,9.27
2022-11-27T01:46:29.289Z,9.30
2022-11-27T01:49:00.722Z,9.87
2022-11-27T01:51:28.365Z,10.13
2022-11-27T01:53:55.970Z,9.50
2022-11-27T01:56:24.859Z,9.60
2022-11-27T01:58:52.711Z,9.17
2022-11-27T02:01:20.328Z,9.80
2022-11-27T02:03:47.851Z,10.83
2022-11-27T02:06:15.397Z,10.20
2022-11-27T02:08:43.253Z,9.17
2022-11-27T02:11:25.498Z,9.43
2022-11-27T02:14:00.506Z,8.43
2022-11-27T02:16:51.307Z,9.70
2022-11-27T02:19:37.131Z,8.10
2022-11-27T02:22:09.061Z,8.97
2022-11-27T02:24:56.708Z,9.60
2022-11-27T02:27:39.243Z,8.10
2022-11-27T02:30:07.276Z,9.73
2022-11-27T02:32:46.861Z,8.93
2022-11-27T02:35:24.120Z,9.40
2022-11-27T02:37:57.393Z,8.60
2022-11-27T02:40:31.462Z,8.90
2022-11-27T02:43:02.169Z,8.13
2022-11-27T02:45:34.597Z,8.20
2022-11-27T02:48:02.040Z,8.60
2022-11-27T02:50:30.236Z,9.60
2022-11-27T02:53:00.130Z,8.67
2022-11-27T02:55:31.120Z,8.70
2022-11-27T02:57:59.556Z,8.30
2022-11-27T03:00:27.072Z,8.77
2022-11-27T03:02:57.453Z,9.93
2022-11-27T03:05:26.493Z,9.37
2022-11-27T03:07:57.508Z,8.47
2022-11-27T03:10:30.815Z,7.80
2022-11-27T03:12:59.069Z,9.17
2022-11-27T03:15:27.541Z,8.57
2022-11-27T03:18:01.896Z,8.97
2022-11-27T03:20:36.090Z,9.60
2022-11-27T03:23:03.883Z,8.67
2022-11-27T03:25:31.348Z,7.73
2022-11-27T03:28:03.574Z,8.47
2022-11-27T03:30:31.182Z,9.00
2022-11-27T03:32:58.653Z,8.57
2022-11-27T03:35:26.815Z,8.43
2022-11-27T03:37:54.887Z,9.80
2022-11-27T03:40:24.881Z,8.80
2022-11-27T03:43:07.228Z,9.23
2022-11-27T03:45:39.244Z,8.53
2022-11-27T03:48:15.728Z,8.43
2022-11-27T03:50:49.261Z,8.23
2022-11-27T03:53:31.750Z,7.80
2022-11-27T03:56:09.814Z,8.10
2022-11-27T03:58:48.878Z,9.00
2022-11-27T04:01:18.660Z,8.87
2022-11-27T04:03:46.103Z,8.37
2022-11-27T04:06:13.586Z,9.87
2022-11-27T04:08:41.293Z,9.43
2022-11-27T04:11:09.184Z,8.30
2022-11-27T04:13:37.147Z,8.67
2022-11-27T04:16:04.751Z,9.27
2022-11-27T04:18:32.391Z,9.60
2022-11-27T04:20:59.860Z,10.70
2022-11-27T04:23:27.307Z,9.57
2022-11-27T04:25:54.758Z,10.43
2022-11-27T04:28:22.177Z,10.03
2022-11-27T04:30:53.853Z,9.57
2022-11-27T04:33:21.475Z,9.50
2022-11-27T04:35:49.226Z,11.50
2022-11-27T04:38:16.748Z,10.00
2022-11-27T04:48:32.121Z,10.73
2022-11-27T04:50:59.583Z,10.30
2022-11-27T04:53:26.992Z,10.10
2022-11-27T04:55:54.456Z,11.33
2022-11-27T04:58:21.921Z,10.27
2022-11-27T05:00:49.465Z,10.83
2022-11-27T05:03:16.944Z,10.43
2022-11-27T05:05:44.441Z,11.73
2022-11-27T05:08:11.882Z,10.40
2022-11-27T05:10:39.328Z,9.57
2022-11-27T05:13:06.765Z,9.23
2022-11-27T05:15:34.273Z,8.03
2022-11-27T05:18:01.740Z,9.10
2022-11-27T05:20:29.167Z,9.53
2022-11-27T05:22:56.617Z,8.87
2022-11-27T05:25:24.071Z,9.63
2022-11-27T05:27:51.504Z,9.63
2022-11-27T05:30:18.924Z,9.83
2022-11-27T05:32:46.378Z,9.80
2022-11-27T05:35:13.843Z,8.57
2022-11-27T05:37:41.252Z,9.87
2022-11-27T05:40:09.013Z,11.33
2022-11-27T05:42:36.495Z,8.73
2022-11-27T05:45:04.054Z,9.23
2022-11-27T05:47:31.857Z,8.80
2022-11-27T05:49:59.404Z,9.90
2022-11-27T05:52:27.105Z,8.83
2022-11-27T05:54:57.147Z,9.47
2022-11-27T05:57:25.073Z,9.83
2022-11-27T05:59:52.722Z,8.83
2022-11-27T06:02:24.983Z,9.60
2022-11-27T06:04:55.352Z,9.33
2022-11-27T06:07:22.887Z,9.13
2022-11-27T06:09:50.427Z,8.73
2022-11-27T06:12:17.911Z,10.30
2022-11-27T06:14:45.347Z,9.27
2022-11-27T06:17:15.739Z,9.07
2022-11-27T06:19:43.563Z,9.57
2022-11-27T06:22:11.011Z,9.53
2022-11-27T06:24:38.624Z,9.43
2022-11-27T06:27:06.359Z,9.13
2022-11-27T06:29:33.881Z,8.03
2022-11-27T06:32:01.462Z,9.30
2022-11-27T06:34:28.979Z,8.37
2022-11-27T06:36:56.400Z,8.83
2022-11-27T06:39:24.057Z,9.43
2022-11-27T06:41:51.465Z,8.13
2022-11-27T06:44:18.868Z,10.30
2022-11-27T06:46:46.302Z,9.57
2022-11-27T06:49:13.766Z,9.00
2022-11-27T06:51:41.284Z,8.97
2022-11-27T06:54:08.810Z,10.50
2022-11-27T06:56:36.228Z,10.90
2022-11-27T06:59:03.699Z,10.17
2022-11-27T07:01:31.985Z,9.67
2022-11-27T07:03:59.665Z,10.70
2022-11-27T07:06:27.713Z,9.13
2022-11-27T07:08:55.592Z,10.27
2022-11-27T07:11:27.600Z,9.17
2022-11-27T07:13:56.222Z,9.43
2022-11-27T07:16:24.346Z,10.20
2022-11-27T07:18:55.343Z,9.57
2022-11-27T07:21:22.927Z,10.47
2022-11-27T07:23:50.450Z,11.63
2022-11-27T07:26:19.342Z,10.40
2022-11-27T07:28:46.824Z,10.93
2022-11-27T07:31:15.990Z,9.40
2022-11-27T07:33:43.483Z,9.60
2022-11-27T07:36:16.014Z,10.13
2022-11-27T07:38:43.640Z,9.87
2022-11-27T07:41:11.620Z,9.50
2022-11-27T07:43:39.366Z,9.80
2022-11-27T07:46:07.629Z,9.53
2022-11-27T07:48:35.270Z,9.17
2022-11-27T07:51:02.720Z,9.30
2022-11-27T07:53:30.168Z,8.53
2022-11-27T07:56:00.177Z,8.80
2022-11-27T07:58:27.649Z,8.93
2022-11-27T08:00:56.542Z,9.17
2022-11-27T08:03:24.504Z,9.33
2022-11-27T08:05:52.146Z,7.93
2022-11-27T08:08:19.646Z,7.60
2022-11-27T08:10:47.088Z,8.17
2022-11-27T08:13:14.598Z,8.97
2022-11-27T08:15:42.075Z,9.37
2022-11-27T08:18:09.524Z,8.97
2022-11-27T08:20:36.998Z,8.67
2022-11-27T08:23:04.707Z,8.37
2022-11-27T08:25:32.552Z,8.67
2022-11-27T08:28:00.044Z,10.00
2022-11-27T08:30:27.500Z,9.50
2022-11-27T08:32:54.946Z,8.90
2022-11-27T08:35:22.914Z,9.73
2022-11-27T08:37:50.438Z,9.27
2022-11-27T08:40:17.931Z,9.37
2022-11-27T08:42:45.300Z,8.93
2022-11-27T08:45:12.768Z,10.33
2022-11-27T08:47:40.291Z,8.63
2022-11-27T08:50:08.160Z,9.70
2022-11-27T08:52:35.619Z,10.63
2022-11-27T08:55:03.812Z,10.17
2022-11-27T08:57:31.295Z,10.00
2022-11-27T08:59:58.769Z,9.50
2022-11-27T09:02:26.349Z,9.10
2022-11-27T09:04:53.759Z,9.97
2022-11-27T09:07:21.282Z,9.63
2022-11-27T09:09:48.862Z,10.10
2022-11-27T09:12:16.795Z,10.07
2022-11-27T09:14:44.197Z,9.93
2022-11-27T09:17:11.641Z,10.03
2022-11-27T09:19:39.145Z,9.47
2022-11-27T09:22:06.615Z,10.67
2022-11-27T09:24:34.073Z,10.80
2022-11-27T09:27:01.478Z,10.07
2022-11-27T09:29:29.028Z,11.37
2022-11-27T09:31:56.597Z,10.07
2022-11-27T09:34:24.037Z,9.87
2022-11-27T09:36:51.509Z,9.43
2022-11-27T09:39:22.801Z,10.13
2022-11-27T09:41:54.588Z,9.80
2022-11-27T09:44:28.225Z,10.23
2022-11-27T09:47:01.049Z,8.53
2022-11-27T09:49:32.134Z,10.67
2022-11-27T09:51:59.624Z,11.90
2022-11-27T09:54:33.073Z,11.50
2022-11-27T09:57:00.602Z,10.60
2022-11-27T09:59:40.375Z,10.43
2022-11-27T10:02:17.833Z,11.37
2022-11-27T10:05:12.249Z,10.73
2022-11-27T10:07:53.212Z,11.07
2022-11-27T10:10:39.710Z,10.13
2022-11-27T10:13:25.879Z,10.17
2022-11-27T10:16:03.889Z,11.73
2022-11-27T10:18:37.155Z,10.60
2022-11-27T10:21:15.647Z,11.10
2022-11-27T10:23:48.911Z,11.07
2022-11-27T10:26:21.489Z,10.70
2022-11-27T10:29:01.958Z,10.07
2022-11-27T10:31:29.569Z,12.47
2022-11-27T10:33:58.889Z,10.23
2022-11-27T10:36:37.524Z,11.07
2022-11-27T10:39:07.021Z,10.20
2022-11-27T10:41:50.376Z,11.77
2022-11-27T10:44:28.046Z,10.63
2022-11-27T10:46:57.748Z,9.90
2022-11-27T10:49:25.225Z,11.13
2022-11-27T10:51:52.718Z,10.43
2022-11-27T10:54:24.743Z,10.87
2022-11-27T10:57:07.290Z,10.70
2022-11-27T10:59:38.656Z,10.50
2022-11-27T11:02:08.670Z,10.97
2022-11-27T11:04:38.674Z,10.13
2022-11-27T11:07:23.381Z,10.47
2022-11-27T11:09:51.017Z,10.97
2022-11-27T11:12:21.271Z,11.03
2022-11-27T11:14:59.327Z,10.20
2022-11-27T11:17:37.300Z,11.40
2022-11-27T11:20:15.412Z,10.53
2022-11-27T11:22:46.689Z,10.87
2022-11-27T11:25:21.235Z,10.67
2022-11-27T11:27:49.824Z,11.07
2022-11-27T11:30:25.269Z,10.90
2022-11-27T11:32:59.906Z,10.70
2022-11-27T11:35:35.441Z,10.67
2022-11-27T11:38:07.752Z,10.73
2022-11-27T11:40:36.667Z,10.93
2022-11-27T11:43:10.172Z,10.77
2022-11-27T11:45:45.510Z,11.07
2022-11-27T11:48:19.254Z,10.07
2022-11-27T11:50:50.534Z,10.37
2022-11-27T11:53:17.954Z,11.63
2022-11-27T11:55:54.527Z,10.37
2022-11-27T11:58:31.312Z,10.80
2022-11-27T12:01:26.375Z,10.40
2022-11-27T12:03:54.105Z,11.33
2022-11-27T12:06:41.321Z,13.13
2022-11-27T12:09:11.814Z,12.97
2022-11-27T12:11:57.710Z,14.87
2022-11-27T12:14:31.125Z,14.07
2022-11-27T12:17:01.193Z,11.43
2022-11-27T12:19:35.067Z,12.07
2022-11-27T12:22:14.829Z,13.27
2022-11-27T12:25:14.543Z,10.97
2022-11-27T12:28:00.415Z,11.27
2022-11-27T12:30:37.051Z,11.90
2022-11-27T12:33:04.553Z,10.77
2022-11-27T12:35:37.952Z,13.20
2022-11-27T12:38:14.465Z,14.43
2022-11-27T12:40:41.899Z,10.63
2022-11-27T12:43:24.990Z,12.60
2022-11-27T12:45:52.461Z,13.83
2022-11-27T12:48:19.953Z,12.27
2022-11-27T12:50:59.336Z,13.93
2022-11-27T12:53:44.931Z,12.30
2022-11-27T12:56:21.761Z,10.97
2022-11-27T12:58:52.103Z,11.90
2022-11-27T13:01:26.735Z,11.47
2022-11-27T13:04:13.503Z,12.77
2022-11-27T13:06:46.111Z,12.00
2022-11-27T13:09:21.992Z,12.53
2022-11-27T13:11:49.658Z,11.40
2022-11-27T13:14:19.634Z,11.17
2022-11-27T13:16:49.562Z,13.27
2022-11-27T13:19:20.114Z,11.77
2022-11-27T13:21:48.585Z,11.90
2022-11-27T13:24:16.546Z,10.80
2022-11-27T13:26:55.667Z,10.43
2022-11-27T13:29:40.466Z,12.00
2022-11-27T13:32:08.329Z,12.17
2022-11-27T13:34:43.377Z,12.07
2022-11-27T13:37:19.799Z,10.67
2022-11-27T13:39:47.216Z,11.00
2022-11-27T13:42:17.377Z,11.97
2022-11-27T13:44:46.114Z,11.23
2022-11-27T13:47:16.151Z,10.30
2022-11-27T13:49:43.721Z,11.00
2022-11-27T13:52:19.241Z,10.90
2022-11-27T13:55:03.208Z,9.50
2022-11-27T13:57:35.751Z,9.73
2022-11-27T14:00:06.957Z,10.30
2022-11-27T14:02:50.556Z,11.87
2022-11-27T14:05:19.543Z,10.47
2022-11-27T14:07:51.535Z,9.93
2022-11-27T14:10:24.157Z,11.00
2022-11-27T14:12:57.395Z,10.60
2022-11-27T14:15:27.489Z,10.93
2022-11-27T14:18:04.992Z,11.53
2022-11-27T14:20:33.780Z,11.60
2022-11-27T14:23:17.269Z,12.33
2022-11-27T14:25:44.813Z,21.07
2022-11-27T14:28:22.387Z,14.27
2022-11-27T14:30:51.268Z,12.77
2022-11-27T14:33:24.051Z,12.17
2022-11-27T14:35:55.587Z,12.03
2022-11-27T14:38:23.719Z,10.97
2022-11-27T14:40:53.710Z,12.97
2022-11-27T14:43:26.207Z,13.00
2022-11-27T14:45:55.152Z,11.27
2022-11-27T14:48:26.816Z,11.83
2022-11-27T14:50:55.678Z,11.53
2022-11-27T14:53:28.062Z,11.00
2022-11-27T14:55:58.336Z,12.20
2022-11-27T14:58:27.193Z,13.17
2022-11-27T15:01:02.737Z,12.30
2022-11-27T15:03:30.379Z,11.67
2022-11-27T15:06:02.234Z,10.93
2022-11-27T15:08:30.896Z,13.23
2022-11-27T15:10:59.334Z,13.43
2022-11-27T15:13:30.904Z,14.27
2022-11-27T15:16:19.044Z,22.50
2022-11-27T15:18:51.103Z,13.40
2022-11-27T15:21:22.481Z,13.97
2022-11-27T15:23:50.452Z,14.17
2022-11-27T15:26:40.486Z,13.57
2022-11-27T15:29:30.190Z,14.10
2022-11-27T15:31:59.253Z,12.53
2022-11-27T15:34:30.940Z,16.97
2022-11-27T15:37:03.935Z,13.60
2022-11-27T15:39:39.380Z,15.17
2022-11-27T15:42:10.038Z,13.40
2022-11-27T15:44:38.733Z,15.03
2022-11-27T15:47:07.216Z,14.13
2022-11-27T15:49:34.703Z,13.93
2022-11-27T15:52:02.337Z,14.97
2022-11-27T15:54:29.778Z,17.53
2022-11-27T15:56:58.466Z,14.20
2022-11-27T15:59:27.383Z,15.63
2022-11-27T16:01:56.137Z,16.50
2022-11-27T16:04:23.667Z,13.80
2022-11-27T16:06:51.445Z,19.10
2022-11-27T16:09:19.105Z,18.83
2022-11-27T16:11:46.663Z,12.43
2022-11-27T16:14:14.274Z,17.17
2022-11-27T16:16:41.914Z,16.50
2022-11-27T16:19:12.260Z,16.63
2022-11-27T16:21:40.138Z,15.70
2022-11-27T16:24:08.674Z,15.97
2022-11-27T16:26:38.130Z,14.83
2022-11-27T16:29:06.475Z,17.63
2022-11-27T16:31:34.042Z,15.10
2022-11-27T16:34:04.595Z,15.30
2022-11-27T16:36:33.135Z,16.80
2022-11-27T16:39:01.194Z,13.47
2022-11-27T16:41:30.850Z,15.03
2022-11-27T16:43:58.624Z,14.50
2022-11-27T16:46:29.170Z,14.67
2022-11-27T16:48:58.935Z,16.70
2022-11-27T16:51:29.518Z,14.80
2022-11-27T16:53:59.031Z,17.37
2022-11-27T16:56:31.720Z,15.87
2022-11-27T16:59:03.131Z,16.50
2022-11-27T17:01:36.225Z,14.80
2022-11-27T17:04:04.878Z,16.17
2022-11-27T17:06:33.509Z,14.70
2022-11-27T17:09:01.856Z,14.90
2022-11-27T17:11:33.105Z,14.97
2022-11-27T17:14:03.012Z,15.43
2022-11-27T17:16:30.812Z,15.10
2022-11-27T17:18:59.298Z,15.27
2022-11-27T17:21:29.297Z,15.70
2022-11-27T17:23:57.712Z,14.90
2022-11-27T17:26:26.944Z,14.63
2022-11-27T17:28:59.504Z,17.20
2022-11-27T17:31:30.849Z,20.93
2022-11-27T17:33:59.894Z,14.43
2022-11-27T17:36:33.734Z,14.90
2022-11-27T17:39:05.422Z,67.93
2022-11-27T17:41:33.090Z,24.97
2022-11-27T17:44:00.728Z,20.00
2022-11-27T17:46:29.106Z,19.03
2022-11-27T17:49:00.429Z,16.07
2022-11-27T17:51:29.019Z,17.10
2022-11-27T17:54:00.810Z,16.03
2022-11-27T17:56:31.461Z,18.67
2022-11-27T17:59:00.021Z,16.57
2022-11-27T18:01:29.411Z,16.67
2022-11-27T18:04:00.374Z,18.20
2022-11-27T18:06:30.524Z,18.03
2022-11-27T18:08:58.928Z,16.63
2022-11-27T18:11:28.329Z,19.07
2022-11-27T18:13:58.857Z,25.10
2022-11-27T18:16:29.264Z,16.40
2022-11-27T18:18:58.519Z,18.70
2022-11-27T18:21:29.164Z,15.73
2022-11-27T18:29:32.231Z,15.63
2022-11-27T18:31:59.718Z,19.07
2022-11-27T18:34:27.236Z,17.60
2022-11-27T18:36:57.431Z,15.27
2022-11-27T18:39:25.144Z,15.23
2022-11-27T18:41:52.944Z,16.33
2022-11-27T18:44:20.643Z,17.43
2022-11-27T18:46:48.417Z,16.30
2022-11-27T18:49:16.008Z,17.30
2022-11-27T18:51:43.493Z,15.60
2022-11-27T18:54:10.967Z,21.17
2022-11-27T18:56:38.480Z,19.30
2022-11-27T18:59:07.014Z,15.57
2022-11-27T19:01:41.314Z,17.63
2022-11-27T19:04:10.160Z,17.80
2022-11-27T19:06:38.568Z,15.97
2022-11-27T19:09:06.872Z,16.53
2022-11-27T19:11:35.071Z,17.37
2022-11-27T19:14:03.479Z,14.73
2022-11-27T19:16:35.724Z,16.47
2022-11-27T19:19:04.947Z,18.13
2022-11-27T19:21:34.282Z,18.03
2022-11-27T19:24:03.517Z,16.73
2022-11-27T19:26:32.391Z,20.20
2022-11-27T19:29:02.648Z,17.40
2022-11-27T19:31:33.585Z,17.70
2022-11-27T19:34:03.120Z,18.70
2022-11-27T19:36:31.793Z,17.50
2022-11-27T19:39:04.099Z,16.37
2022-11-27T19:41:31.637Z,15.57
2022-11-27T19:44:03.655Z,17.33
2022-11-27T19:46:32.223Z,17.37
2022-11-27T19:49:01.134Z,16.20
2022-11-27T19:51:31.824Z,15.73
2022-11-27T19:54:02.623Z,16.07
2022-11-27T19:56:35.764Z,14.53
2022-11-27T19:59:03.684Z,18.67
2022-11-27T20:01:31.266Z,32.17
2022-11-27T20:03:59.966Z,26.57
2022-11-27T20:06:28.380Z,18.17
2022-11-27T20:09:00.880Z,17.97
2022-11-27T20:11:34.635Z,18.00
2022-11-27T20:14:04.943Z,17.53
2022-11-27T20:16:34.121Z,18.87
2022-11-27T20:19:02.507Z,20.30
2022-11-27T20:21:31.026Z,15.83
2022-11-27T20:23:58.801Z,17.80
2022-11-27T20:26:28.298Z,15.70
2022-11-27T20:28:55.893Z,25.13
2022-11-27T20:31:25.469Z,15.87
2022-11-27T20:33:56.149Z,30.50
2022-11-27T20:36:25.107Z,21.50
2022-11-27T20:38:53.914Z,29.10
2022-11-27T20:41:22.394Z,24.63
2022-11-27T20:43:55.373Z,19.20
2022-11-27T20:46:23.813Z,21.00
2022-11-27T20:48:52.358Z,35.70
2022-11-27T20:51:21.491Z,32.20
2022-11-27T20:53:49.780Z,29.30
2022-11-27T20:56:20.401Z,27.63
2022-11-27T20:58:48.753Z,26.90
2022-11-27T21:01:21.164Z,28.17
2022-11-27T21:03:50.093Z,20.93
2022-11-27T21:06:20.176Z,20.73
2022-11-27T21:08:49.248Z,19.10
2022-11-27T21:11:18.617Z,18.60
2022-11-27T21:13:46.100Z,18.73
2022-11-27T21:16:14.904Z,17.47
2022-11-27T21:18:43.132Z,19.30
2022-11-27T21:21:12.017Z,18.10
2022-11-27T21:23:40.057Z,16.50
2022-11-27T21:26:08.322Z,18.20
2022-11-27T21:28:35.909Z,21.53
2022-11-27T21:31:17.860Z,18.23
2022-11-27T21:33:49.286Z,19.10
2022-11-27T21:36:17.600Z,16.57
2022-11-27T21:38:45.778Z,17.93
2022-11-27T21:41:14.084Z,17.33
2022-11-27T21:43:42.409Z,19.33
2022-11-27T21:46:14.161Z,17.70
2022-11-27T21:48:42.106Z,21.90
2022-11-27T21:51:15.424Z,23.83
2022-11-27T21:53:43.867Z,18.43
2022-11-27T21:56:17.299Z,15.03
2022-11-27T21:58:46.914Z,17.90
2022-11-27T22:01:18.400Z,16.47
2022-11-27T22:03:51.527Z,15.60
2022-11-27T22:06:19.649Z,16.47
2022-11-27T22:08:48.189Z,16.20
2022-11-27T22:11:17.330Z,16.87
2022-11-27T22:13:45.245Z,17.63
2022-11-27T22:16:13.996Z,18.40
2022-11-27T22:18:41.778Z,15.63
2022-11-27T22:21:10.565Z,16.43
2022-11-27T22:23:38.990Z,16.30
2022-11-27T22:26:07.441Z,16.60
2022-11-27T22:28:36.178Z,18.57
2022-11-27T22:31:12.829Z,17.27
2022-11-27T22:33:41.447Z,15.87
2022-11-27T22:36:16.908Z,16.63
2022-11-27T22:38:45.683Z,16.80
2022-11-27T22:41:14.746Z,19.17
2022-11-27T22:43:42.604Z,16.83
2022-11-27T22:46:12.477Z,17.53
2022-11-27T22:48:40.319Z,17.50
2022-11-27T22:51:09.318Z,16.20
2022-11-27T22:53:37.223Z,15.80
2022-11-27T22:56:06.246Z,18.50
2022-11-27T22:58:38.379Z,18.20
2022-11-27T23:01:10.256Z,18.50
2022-11-27T23:03:38.818Z,18.87
2022-11-27T23:06:11.855Z,20.00
2022-11-27T23:08:40.533Z,18.87
2022-11-27T23:11:08.756Z,18.93
2022-11-27T23:13:36.294Z,18.80
2022-11-27T23:16:04.809Z,19.70
2022-11-27T23:18:32.504Z,19.10
2022-11-27T23:21:00.013Z,19.00
2022-11-27T23:23:27.447Z,18.73
2022-11-27T23:25:54.940Z,19.43
2022-11-27T23:28:22.368Z,18.33
2022-11-27T23:31:03.136Z,17.47
2022-11-27T23:33:37.870Z,16.23
2022-11-27T23:36:05.518Z,19.97
2022-11-27T23:38:33.288Z,17.37
2022-11-27T23:41:11.464Z,17.90
2022-11-27T23:43:39.077Z,16.37
2022-11-27T23:46:07.816Z,19.00
2022-11-27T23:48:35.453Z,17.70
2022-11-27T23:51:10.156Z,17.90
2022-11-27T23:53:38.208Z,17.47
2022-11-27T23:56:08.527Z,17.60
2022-11-27T23:58:35.969Z,17.93
